createdAt,value
2022-10-17T00:01:32.866Z,101529.28
2022-10-17T00:03:59.512Z,101490.22
2022-10-17T00:06:26.149Z,101523.31
2022-10-17T00:08:52.844Z,101518.25
2022-10-17T00:11:22.815Z,101543.59
2022-10-17T00:13:50.158Z,101541.88
2022-10-17T00:16:34.555Z,101533.19
2022-10-17T00:19:01.226Z,101536.66
2022-10-17T00:21:29.421Z,101534.84
2022-10-17T00:23:56.249Z,101519.16
2022-10-17T00:26:23.453Z,101555.69
2022-10-17T00:28:51.654Z,101553.13
2022-10-17T00:31:20.284Z,101524.53
2022-10-17T00:33:47.642Z,101547.97
2022-10-17T00:36:21.035Z,101512.22
2022-10-17T00:38:50.434Z,101556.50
2022-10-17T00:41:19.524Z,101563.47
2022-10-17T00:43:58.209Z,101556.50
2022-10-17T00:46:30.904Z,101547.00
2022-10-17T00:49:00.790Z,101560.03
2022-10-17T00:51:47.513Z,101566.13
2022-10-17T00:54:17.543Z,101572.16
2022-10-17T00:56:46.807Z,101570.41
2022-10-17T00:59:16.184Z,101568.72
2022-10-17T01:01:51.688Z,101563.56
2022-10-17T01:04:19.503Z,101560.13
2022-10-17T01:06:46.097Z,101556.72
2022-10-17T01:09:12.807Z,101544.56
2022-10-17T01:11:50.872Z,101568.13
2022-10-17T01:14:17.453Z,101563.75
2022-10-17T01:17:20.249Z,101553.34
2022-10-17T01:20:11.775Z,101556.72
2022-10-17T01:23:09.602Z,101549.75
2022-10-17T01:25:44.888Z,101555.03
2022-10-17T01:28:49.939Z,101561.22
2022-10-17T01:31:23.070Z,101555.13
2022-10-17T01:34:14.618Z,101548.16
2022-10-17T01:37:04.443Z,101561.16
2022-10-17T01:40:00.350Z,101537.69
2022-10-17T01:42:31.589Z,101541.16
2022-10-17T01:45:06.787Z,101530.69
2022-10-17T01:47:34.694Z,101531.56
2022-10-17T01:50:07.808Z,101551.50
2022-10-17T01:52:40.074Z,101549.59
2022-10-17T01:55:12.650Z,101558.31
2022-10-17T01:57:44.027Z,101558.25
2022-10-17T02:00:17.027Z,101552.19
2022-10-17T02:02:46.661Z,101539.28
2022-10-17T02:05:13.251Z,101563.75
2022-10-17T02:07:41.930Z,101556.84
2022-10-17T02:10:31.931Z,101569.91
2022-10-17T02:13:18.621Z,101565.53
2022-10-17T02:15:57.500Z,101571.59
2022-10-17T02:18:50.405Z,101568.97
2022-10-17T02:21:38.116Z,101573.34
2022-10-17T02:24:19.253Z,101553.31
2022-10-17T02:26:59.016Z,101556.84
2022-10-17T02:29:35.415Z,101553.28
2022-10-17T02:34:50.468Z,101570.81
2022-10-17T02:37:22.511Z,101580.34
2022-10-17T02:39:50.850Z,101537.72
2022-10-17T02:42:18.839Z,101572.59
2022-10-17T02:44:46.415Z,101556.91
2022-10-17T02:47:36.684Z,101539.47
2022-10-17T02:50:04.249Z,101569.09
2022-10-17T02:52:43.456Z,101564.78
2022-10-17T02:55:16.670Z,101576.09
2022-10-17T02:57:51.353Z,101590.84
2022-10-17T03:00:19.136Z,101587.31
2022-10-17T03:02:48.938Z,101589.94
2022-10-17T03:05:20.875Z,101590.81
2022-10-17T03:07:47.598Z,101576.94
2022-10-17T03:10:14.341Z,101592.66
2022-10-17T03:12:40.951Z,101563.09
2022-10-17T03:15:07.977Z,101588.38
2022-10-17T03:17:35.447Z,101576.19
2022-10-17T03:20:02.332Z,101603.16
2022-10-17T03:22:29.027Z,101583.97
2022-10-17T03:24:55.791Z,101595.28
2022-10-17T03:27:22.617Z,101551.78
2022-10-17T03:29:49.309Z,101582.22
2022-10-17T03:32:15.968Z,101592.69
2022-10-17T03:34:42.588Z,101549.16
2022-10-17T03:37:09.176Z,101604.88
2022-10-17T03:39:35.766Z,101543.91
2022-10-17T03:42:02.424Z,101576.88
2022-10-17T03:44:29.025Z,101578.69
2022-10-17T03:46:55.609Z,101500.38
2022-10-17T03:49:22.246Z,101588.22
2022-10-17T03:51:48.857Z,101605.69
2022-10-17T03:54:15.447Z,101594.47
2022-10-17T03:56:43.427Z,101591.06
2022-10-17T03:59:14.985Z,101603.28
2022-10-17T04:01:42.104Z,101617.25
2022-10-17T04:04:09.431Z,101593.75
2022-10-17T04:06:36.611Z,101599.81
2022-10-17T04:09:04.729Z,101581.53
2022-10-17T04:11:31.372Z,101586.72
2022-10-17T04:13:59.683Z,101592.81
2022-10-17T04:16:26.815Z,101618.97
2022-10-17T04:18:58.350Z,101611.22
2022-10-17T04:21:28.928Z,101579.88
2022-10-17T04:23:57.567Z,101624.31
2022-10-17T04:26:24.596Z,101619.94
2022-10-17T04:28:51.520Z,101572.94
2022-10-17T04:31:18.869Z,101598.19
2022-10-17T04:33:50.155Z,101581.66
2022-10-17T04:36:19.483Z,101538.06
2022-10-17T04:38:46.781Z,101628.72
2022-10-17T04:41:15.955Z,101629.59
2022-10-17T04:43:45.584Z,101595.56
2022-10-17T04:46:15.670Z,101613.88
2022-10-17T04:48:42.613Z,101640.88
2022-10-17T04:51:12.951Z,101640.91
2022-10-17T04:53:40.779Z,101632.19
2022-10-17T04:56:13.308Z,101590.34
2022-10-17T04:58:40.987Z,101645.28
2022-10-17T05:01:09.527Z,101627.84
2022-10-17T05:03:36.400Z,101652.22
2022-10-17T05:06:08.110Z,101614.75
2022-10-17T05:08:35.716Z,101649.59
2022-10-17T05:11:03.026Z,101620.81
2022-10-17T05:13:29.765Z,101646.03
2022-10-17T05:16:02.260Z,101610.34
2022-10-17T05:18:29.374Z,101622.50
2022-10-17T05:20:56.231Z,101635.56
2022-10-17T05:23:23.195Z,101627.72
2022-10-17T05:25:55.018Z,101657.38
2022-10-17T05:28:22.382Z,101626.88
2022-10-17T05:30:49.124Z,101629.47
2022-10-17T05:33:16.025Z,101653.81
2022-10-17T05:35:42.752Z,101662.56
2022-10-17T05:38:09.339Z,101682.59
2022-10-17T05:40:36.029Z,101684.31
2022-10-17T05:43:02.623Z,101665.09
2022-10-17T05:45:29.239Z,101677.28
2022-10-17T05:47:55.852Z,101685.94
2022-10-17T05:50:24.097Z,101699.88
2022-10-17T05:52:54.175Z,101692.88
2022-10-17T05:55:20.979Z,101682.41
2022-10-17T05:57:47.599Z,101656.22
2022-10-17T06:00:14.744Z,101714.59
2022-10-17T06:02:41.957Z,101692.75
2022-10-17T06:05:08.841Z,101680.50
2022-10-17T06:07:35.979Z,101720.50
2022-10-17T06:10:02.666Z,101695.16
2022-10-17T06:12:29.498Z,101696.78
2022-10-17T06:14:56.281Z,101720.25
2022-10-17T06:17:23.073Z,101686.88
2022-10-17T06:19:49.675Z,101725.97
2022-10-17T06:22:16.504Z,101717.94
2022-10-17T06:24:43.172Z,101705.63
2022-10-17T06:27:11.946Z,101727.34
2022-10-17T06:29:39.108Z,101686.19
2022-10-17T06:32:07.730Z,101728.63
2022-10-17T06:34:36.577Z,101739.00
2022-10-17T06:37:03.284Z,101757.75
2022-10-17T06:39:34.046Z,101762.00
2022-10-17T06:42:01.697Z,101740.63
2022-10-17T06:44:32.006Z,101742.31
2022-10-17T06:47:00.019Z,101768.88
2022-10-17T06:49:27.533Z,101760.72
2022-10-17T06:51:54.836Z,101729.06
2022-10-17T06:54:21.544Z,101767.22
2022-10-17T06:56:48.166Z,101766.06
2022-10-17T06:59:15.755Z,101766.75
2022-10-17T07:01:46.047Z,101751.84
2022-10-17T07:04:14.460Z,101762.78
2022-10-17T07:06:41.399Z,101762.53
2022-10-17T07:09:08.201Z,101796.47
2022-10-17T07:11:35.239Z,101784.50
2022-10-17T07:14:02.197Z,101787.91
2022-10-17T07:16:29.033Z,101792.06
2022-10-17T07:18:56.166Z,101797.78
2022-10-17T07:21:22.807Z,101801.06
2022-10-17T07:23:49.715Z,101801.44
2022-10-17T07:26:17.568Z,101810.78
2022-10-17T07:28:45.884Z,101815.03
2022-10-17T07:31:16.065Z,101796.59
2022-10-17T07:33:43.771Z,101812.13
2022-10-17T07:36:11.209Z,101794.09
2022-10-17T07:38:37.979Z,101808.25
2022-10-17T07:41:06.994Z,101819.84
2022-10-17T07:43:34.421Z,101815.25
2022-10-17T07:46:02.348Z,101816.16
2022-10-17T07:48:29.402Z,101811.38
2022-10-17T07:50:56.032Z,101797.44
2022-10-17T07:53:22.659Z,101795.13
2022-10-17T07:55:49.829Z,101814.94
2022-10-17T07:58:16.700Z,101816.16
2022-10-17T08:00:43.565Z,101816.41
2022-10-17T08:03:11.077Z,101810.69
2022-10-17T08:05:37.702Z,101819.97
2022-10-17T08:08:04.490Z,101783.16
2022-10-17T08:10:31.174Z,101802.09
2022-10-17T08:12:58.711Z,101812.09
2022-10-17T08:15:29.403Z,101823.69
2022-10-17T08:17:59.449Z,101818.47
2022-10-17T08:20:26.243Z,101803.75
2022-10-17T08:22:54.350Z,101818.75
2022-10-17T08:25:21.695Z,101810.91
2022-10-17T08:27:48.831Z,101817.88
2022-10-17T08:30:15.962Z,101817.06
2022-10-17T08:32:42.831Z,101814.88
2022-10-17T08:35:09.808Z,101792.09
2022-10-17T08:37:36.591Z,101800.19
2022-10-17T08:40:03.972Z,101818.44
2022-10-17T08:42:45.831Z,101816.66
2022-10-17T08:45:29.745Z,101818.28
2022-10-17T08:47:59.897Z,101820.19
2022-10-17T08:50:47.943Z,101817.78
2022-10-17T08:53:58.739Z,101819.81
2022-10-17T08:56:49.544Z,101814.81
2022-10-17T08:59:36.688Z,101810.66
2022-10-17T09:02:14.287Z,101790.22
2022-10-17T09:05:24.046Z,101798.75
2022-10-17T09:08:20.089Z,101804.09
2022-10-17T09:11:02.531Z,101808.88
2022-10-17T09:13:49.298Z,101788.69
2022-10-17T09:16:24.981Z,101802.59
2022-10-17T09:19:02.988Z,101804.16
2022-10-17T09:21:42.911Z,101802.00
2022-10-17T09:24:20.722Z,101785.34
2022-10-17T09:26:47.345Z,101793.63
2022-10-17T09:29:28.625Z,101804.19
2022-10-17T09:32:17.351Z,101817.53
2022-10-17T09:34:44.181Z,101795.75
2022-10-17T09:37:14.474Z,101698.16
2022-10-17T09:39:42.312Z,101814.53
2022-10-17T09:42:13.884Z,101810.34
2022-10-17T09:44:45.494Z,101802.28
2022-10-17T09:47:27.298Z,101816.13
2022-10-17T09:49:54.224Z,101814.25
2022-10-17T09:52:29.474Z,101823.56
2022-10-17T09:55:15.723Z,101826.56
2022-10-17T09:57:59.038Z,101819.25
2022-10-17T10:00:34.580Z,101788.16
2022-10-17T10:03:21.815Z,101815.28
2022-10-17T10:06:06.767Z,101814.25
2022-10-17T10:08:49.665Z,101810.84
2022-10-17T10:11:17.769Z,101806.66
2022-10-17T10:13:46.345Z,101808.88
2022-10-17T10:16:16.167Z,101803.31
2022-10-17T10:18:45.422Z,101803.16
2022-10-17T10:21:15.346Z,101810.38
2022-10-17T10:23:44.196Z,101804.28
2022-10-17T10:26:23.976Z,101796.34
2022-10-17T10:28:54.804Z,101798.75
2022-10-17T10:31:31.499Z,101782.63
2022-10-17T10:34:01.309Z,101721.09
2022-10-17T10:36:44.510Z,101792.44
2022-10-17T10:39:36.869Z,101780.88
2022-10-17T10:42:07.500Z,101793.84
2022-10-17T10:44:36.769Z,101768.38
2022-10-17T10:47:17.286Z,101793.00
2022-10-17T10:49:44.666Z,101771.47
2022-10-17T10:52:43.308Z,101772.97
2022-10-17T10:55:24.959Z,101779.50
2022-10-17T10:57:55.989Z,101764.22
2022-10-17T11:00:27.583Z,101783.38
2022-10-17T11:02:54.272Z,101781.00
2022-10-17T11:05:35.727Z,101763.97
2022-10-17T11:08:36.206Z,101779.34
2022-10-17T11:11:18.150Z,101780.22
2022-10-17T11:13:53.377Z,101770.97
2022-10-17T11:16:29.899Z,101767.75
2022-10-17T11:18:59.509Z,101772.97
2022-10-17T11:21:44.072Z,101769.09
2022-10-17T11:24:24.805Z,101759.59
2022-10-17T11:27:06.398Z,101766.41
2022-10-17T11:29:39.494Z,101758.97
2022-10-17T11:32:13.858Z,101764.09
2022-10-17T11:34:46.031Z,101672.34
2022-10-17T11:37:19.000Z,101739.59
2022-10-17T11:39:52.057Z,101756.63
2022-10-17T11:42:27.535Z,101723.28
2022-10-17T11:45:03.227Z,101737.88
2022-10-17T11:47:47.156Z,101756.97
2022-10-17T11:53:14.956Z,101712.16
2022-10-17T11:55:43.549Z,101741.72
2022-10-17T11:58:30.717Z,101725.09
2022-10-17T12:01:03.395Z,101742.75
2022-10-17T12:04:04.147Z,101740.06
2022-10-17T12:07:06.067Z,101734.41
2022-10-17T12:09:46.092Z,101730.69
2022-10-17T12:12:27.082Z,101719.75
2022-10-17T12:14:54.470Z,101709.81
2022-10-17T12:17:33.086Z,101725.34
2022-10-17T12:20:24.890Z,101728.66
2022-10-17T12:22:51.495Z,101726.75
2022-10-17T12:25:31.602Z,101707.81
2022-10-17T12:28:07.609Z,101720.00
2022-10-17T12:30:35.040Z,101704.69
2022-10-17T12:33:25.720Z,101711.22
2022-10-17T12:36:27.090Z,101723.56
2022-10-17T12:38:56.615Z,101723.56
2022-10-17T12:41:38.533Z,101715.34
2022-10-17T12:44:14.643Z,101717.25
2022-10-17T12:46:51.245Z,101711.59
2022-10-17T12:49:38.090Z,101709.00
2022-10-17T12:52:06.484Z,101706.09
2022-10-17T12:54:47.686Z,101702.88
2022-10-17T12:57:43.272Z,101707.19
2022-10-17T13:00:15.936Z,101708.88
2022-10-17T13:02:43.044Z,101679.53
2022-10-17T13:05:16.760Z,101689.16
2022-10-17T13:07:47.239Z,101687.88
2022-10-17T13:10:23.901Z,101708.53
2022-10-17T13:12:53.876Z,101695.97
2022-10-17T13:15:21.138Z,101662.31
2022-10-17T13:17:56.138Z,101681.56
2022-10-17T13:20:29.060Z,101701.69
2022-10-17T13:22:58.828Z,101701.41
2022-10-17T13:25:27.545Z,101695.38
2022-10-17T13:28:12.011Z,101649.16
2022-10-17T13:30:38.709Z,101673.88
2022-10-17T13:33:27.812Z,101682.13
2022-10-17T13:36:01.671Z,101659.84
2022-10-17T13:38:32.600Z,101695.28
2022-10-17T13:41:30.138Z,101670.44
2022-10-17T13:43:48.003Z,101682.09
2022-10-17T13:46:38.045Z,101683.28
2022-10-17T13:49:23.304Z,101695.47
2022-10-17T13:51:54.296Z,101691.81
2022-10-17T13:54:40.631Z,101692.88
2022-10-17T13:57:19.837Z,101692.59
2022-10-17T13:59:50.132Z,101693.50
2022-10-17T14:02:23.076Z,101698.19
2022-10-17T14:05:17.792Z,101697.34
2022-10-17T14:10:42.530Z,101679.19
2022-10-17T14:13:22.358Z,101675.50
2022-10-17T14:15:49.468Z,101653.75
2022-10-17T14:18:24.164Z,101662.13
2022-10-17T14:23:44.785Z,101645.00
2022-10-17T14:26:16.990Z,101676.84
2022-10-17T14:28:47.132Z,101687.44
2022-10-17T14:31:29.473Z,101661.44
2022-10-17T14:33:56.717Z,101686.41
2022-10-17T14:36:42.739Z,101652.97
2022-10-17T14:39:20.443Z,101668.97
2022-10-17T14:41:48.032Z,101664.06
2022-10-17T14:44:21.697Z,101684.84
2022-10-17T14:46:52.904Z,101682.59
2022-10-17T14:49:40.882Z,101690.41
2022-10-17T14:52:18.391Z,101696.31
2022-10-17T14:54:49.692Z,101690.28
2022-10-17T14:57:31.712Z,101688.00
2022-10-17T14:59:58.937Z,101685.41
2022-10-17T15:02:29.536Z,101683.69
2022-10-17T15:04:56.652Z,101611.72
2022-10-17T15:07:24.099Z,101690.72
2022-10-17T15:09:53.234Z,101697.28
2022-10-17T15:12:23.602Z,101603.94
2022-10-17T15:14:51.632Z,101689.22
2022-10-17T15:17:27.066Z,101703.41
2022-10-17T15:19:53.875Z,101670.19
2022-10-17T15:22:20.626Z,101668.84
2022-10-17T15:24:47.668Z,101694.88
2022-10-17T15:27:23.482Z,101655.78
2022-10-17T15:29:51.743Z,101697.66
2022-10-17T15:32:18.794Z,101702.22
2022-10-17T15:34:45.533Z,101658.00
2022-10-17T15:37:24.440Z,101707.19
2022-10-17T15:39:55.278Z,101701.56
2022-10-17T15:42:23.699Z,101623.56
2022-10-17T15:44:50.533Z,101684.88
2022-10-17T15:47:26.088Z,101706.25
2022-10-17T15:49:54.261Z,101698.34
2022-10-17T15:52:22.072Z,101710.53
2022-10-17T15:54:48.739Z,101700.06
2022-10-17T15:57:24.724Z,101711.06
2022-10-17T15:59:52.406Z,101726.56
2022-10-17T16:02:20.547Z,101720.88
2022-10-17T16:04:48.833Z,101714.38
2022-10-17T16:07:15.565Z,101673.34
2022-10-17T16:09:42.150Z,101708.72
2022-10-17T16:12:26.625Z,101723.06
2022-10-17T16:14:53.273Z,101679.72
2022-10-17T16:17:20.109Z,101714.66
2022-10-17T16:19:46.760Z,101728.97
2022-10-17T16:22:32.713Z,101711.19
2022-10-17T16:25:07.641Z,101710.50
2022-10-17T16:27:34.296Z,101712.75
2022-10-17T16:30:01.005Z,101734.06
2022-10-17T16:32:27.785Z,101721.88
2022-10-17T16:34:54.472Z,101714.41
2022-10-17T16:37:21.090Z,101742.53
2022-10-17T16:39:52.444Z,101729.63
2022-10-17T16:42:20.683Z,101748.16
2022-10-17T16:44:48.512Z,101742.31
2022-10-17T16:47:15.508Z,101706.84
2022-10-17T16:49:45.183Z,101717.75
2022-10-17T16:52:12.820Z,101716.22
2022-10-17T16:54:39.489Z,101738.09
2022-10-17T16:57:06.128Z,101747.84
2022-10-17T16:59:32.768Z,101730.63
2022-10-17T17:01:59.496Z,101738.53
2022-10-17T17:04:26.255Z,101733.53
2022-10-17T17:06:52.923Z,101724.19
2022-10-17T17:09:19.749Z,101728.09
2022-10-17T17:11:46.460Z,101738.59
2022-10-17T17:14:13.341Z,101750.03
2022-10-17T17:16:40.088Z,101733.69
2022-10-17T17:19:08.656Z,101761.69
2022-10-17T17:21:35.700Z,101753.13
2022-10-17T17:24:04.109Z,101752.38
2022-10-17T17:26:33.853Z,101758.56
2022-10-17T17:29:00.575Z,101721.38
2022-10-17T17:31:30.901Z,101729.47
2022-10-17T17:33:57.924Z,101766.88
2022-10-17T17:36:31.449Z,101769.56
2022-10-17T17:39:00.661Z,101769.59
2022-10-17T17:41:28.045Z,101747.97
2022-10-17T17:43:55.811Z,101750.72
2022-10-17T17:46:23.976Z,101658.69
2022-10-17T17:48:51.754Z,101763.13
2022-10-17T17:51:21.772Z,101767.72
2022-10-17T17:53:54.380Z,101769.41
2022-10-17T17:56:26.868Z,101767.66
2022-10-17T17:59:01.745Z,101767.72
2022-10-17T18:01:31.940Z,101766.91
2022-10-17T18:03:59.161Z,101755.66
2022-10-17T18:06:26.899Z,101760.94
2022-10-17T18:08:56.304Z,101764.59
2022-10-17T18:11:22.930Z,101747.38
2022-10-17T18:13:54.660Z,101743.13
2022-10-17T18:16:21.329Z,101742.38
2022-10-17T18:18:47.975Z,101750.19
2022-10-17T18:21:14.784Z,101682.41
2022-10-17T18:23:43.059Z,101751.16
2022-10-17T18:26:10.212Z,101735.63
2022-10-17T18:28:39.429Z,101777.50
2022-10-17T18:31:07.919Z,101751.47
2022-10-17T18:33:35.321Z,101741.09
2022-10-17T18:36:07.063Z,101749.88
2022-10-17T18:38:34.191Z,101755.16
2022-10-17T18:41:09.803Z,101770.81
2022-10-17T18:43:37.975Z,101728.13
2022-10-17T18:46:12.423Z,101749.94
2022-10-17T18:48:47.095Z,101767.47
2022-10-17T18:51:15.631Z,101756.22
2022-10-17T18:53:44.684Z,101759.69
2022-10-17T18:56:13.540Z,101715.34
2022-10-17T18:58:42.186Z,101743.31
2022-10-17T19:01:15.434Z,101765.94
2022-10-17T19:03:45.731Z,101766.84
2022-10-17T19:06:15.932Z,101748.69
2022-10-17T19:08:45.778Z,101771.25
2022-10-17T19:11:17.883Z,101764.22
2022-10-17T19:16:26.976Z,101746.75
2022-10-17T19:19:10.180Z,101757.94
2022-10-17T19:21:37.579Z,101733.59
2022-10-17T19:24:06.740Z,101761.47
2022-10-17T19:26:35.677Z,101713.69
2022-10-17T19:29:03.037Z,101745.91
2022-10-17T19:31:31.819Z,101765.13
2022-10-17T19:33:59.790Z,101757.28
2022-10-17T19:36:32.393Z,101707.66
2022-10-17T19:39:05.448Z,101751.22
2022-10-17T19:41:32.528Z,101733.84
2022-10-17T19:44:00.550Z,101701.59
2022-10-17T19:46:28.895Z,101761.66
2022-10-17T19:48:55.972Z,101710.28
2022-10-17T19:51:27.011Z,101738.22
2022-10-17T19:53:55.580Z,101760.94
2022-10-17T19:56:24.697Z,101742.72
2022-10-17T19:58:51.620Z,101761.91
2022-10-17T20:01:21.352Z,101766.31
2022-10-17T20:03:48.537Z,101748.94
2022-10-17T20:06:15.972Z,101763.69
2022-10-17T20:08:42.805Z,101709.69
2022-10-17T20:11:14.966Z,101745.44
2022-10-17T20:13:42.262Z,101761.13
2022-10-17T20:16:12.232Z,101740.28
2022-10-17T20:18:40.850Z,101734.28
2022-10-17T20:21:13.919Z,101765.69
2022-10-17T20:23:41.489Z,101763.94
2022-10-17T20:26:33.191Z,101768.38
2022-10-17T20:29:01.718Z,101740.50
2022-10-17T20:31:28.779Z,101718.72
2022-10-17T20:33:59.979Z,101757.09
2022-10-17T20:36:26.939Z,101767.63
2022-10-17T20:38:57.859Z,101747.66
2022-10-17T20:41:26.255Z,101752.00
2022-10-17T20:43:54.453Z,101752.91
2022-10-17T20:46:35.925Z,101715.56
2022-10-17T20:49:04.508Z,101735.59
2022-10-17T20:51:31.161Z,101724.34
2022-10-17T20:53:57.925Z,101748.78
2022-10-17T20:56:29.932Z,101745.31
2022-10-17T20:58:59.068Z,101730.47
2022-10-17T21:01:26.750Z,101747.03
2022-10-17T21:03:53.973Z,101758.44
2022-10-17T21:06:21.719Z,101761.94
2022-10-17T21:08:49.258Z,101741.91
2022-10-17T21:11:18.489Z,101746.28
2022-10-17T21:13:45.991Z,101752.41
2022-10-17T21:16:15.554Z,101746.31
2022-10-17T21:18:42.724Z,101740.19
2022-10-17T21:21:21.240Z,101728.03
2022-10-17T21:23:50.168Z,101755.91
2022-10-17T21:26:18.010Z,101771.63
2022-10-17T21:28:46.018Z,101783.00
2022-10-17T21:31:21.110Z,101770.81
2022-10-17T21:33:59.066Z,101750.78
2022-10-17T21:36:26.846Z,101773.44
2022-10-17T21:38:55.001Z,101750.78
2022-10-17T21:41:24.328Z,101755.16
2022-10-17T21:43:58.860Z,101781.31
2022-10-17T21:46:26.394Z,101770.00
2022-10-17T21:48:53.400Z,101776.09
2022-10-17T21:51:25.353Z,101766.50
2022-10-17T21:53:53.983Z,101770.88
2022-10-17T21:56:22.955Z,101764.75
2022-10-17T21:58:50.987Z,101768.28
2022-10-17T22:01:23.466Z,101743.81
2022-10-17T22:03:52.764Z,101763.03
2022-10-17T22:09:14.255Z,101760.41
2022-10-17T22:11:41.889Z,101759.53
2022-10-17T22:14:15.587Z,101719.41
2022-10-17T22:16:45.028Z,101761.25
2022-10-17T22:19:13.019Z,101742.00
2022-10-17T22:21:40.045Z,101744.63
2022-10-17T22:24:08.689Z,101743.81
2022-10-17T22:26:37.428Z,101741.13
2022-10-17T22:29:06.175Z,101740.25
2022-10-17T22:31:32.822Z,101716.69
2022-10-17T22:33:59.661Z,101724.53
2022-10-17T22:36:26.837Z,101724.56
2022-10-17T22:38:53.596Z,101749.00
2022-10-17T22:41:20.629Z,101715.81
2022-10-17T22:43:47.299Z,101700.09
2022-10-17T22:46:16.671Z,101738.50
2022-10-17T22:48:43.751Z,101716.72
2022-10-17T22:51:10.903Z,101693.16
2022-10-17T22:53:37.940Z,101711.47
2022-10-17T22:56:13.968Z,101721.94
2022-10-17T22:58:40.705Z,101703.56
2022-10-17T23:01:10.026Z,101742.00
2022-10-17T23:03:36.788Z,101728.03
2022-10-17T23:06:03.991Z,101712.31
2022-10-17T23:08:31.248Z,101736.75
2022-10-17T23:10:58.216Z,101693.13
2022-10-17T23:13:25.088Z,101708.81
2022-10-17T23:15:56.490Z,101691.34
2022-10-17T23:18:24.911Z,101724.50
2022-10-17T23:20:52.494Z,101734.97
2022-10-17T23:23:19.539Z,101738.44
2022-10-17T23:25:46.683Z,101700.03
2022-10-17T23:28:14.093Z,101734.06
2022-10-17T23:30:41.077Z,101718.34
2022-10-17T23:33:09.553Z,101714.81
2022-10-17T23:35:36.160Z,101718.31
2022-10-17T23:38:03.639Z,101686.88
2022-10-17T23:40:30.610Z,101719.19
2022-10-17T23:42:57.190Z,101714.84
2022-10-17T23:45:23.862Z,101704.34
2022-10-17T23:47:50.483Z,101720.03
2022-10-17T23:50:17.110Z,101696.53
2022-10-17T23:52:43.893Z,101698.28
2022-10-17T23:55:10.992Z,101713.97
2022-10-17T23:57:37.602Z,101714.84
